createdAt,value
2018-04-06T00:01:41.468Z,61.80
2018-04-06T00:04:07.737Z,61.90
2018-04-06T00:06:34.060Z,62.00
2018-04-06T00:09:00.351Z,61.10
2018-04-06T00:11:26.593Z,60.80
2018-04-06T00:13:52.959Z,61.80
2018-04-06T00:16:19.407Z,61.90
2018-04-06T00:18:45.677Z,61.10
2018-04-06T00:21:11.945Z,61.90
2018-04-06T00:23:38.165Z,61.80
2018-04-06T00:26:04.429Z,61.70
2018-04-06T00:28:30.634Z,61.30
2018-04-06T00:30:57.617Z,61.30
2018-04-06T00:33:24.016Z,61.30
2018-04-06T00:35:50.471Z,61.80
2018-04-06T00:38:16.752Z,61.30
2018-04-06T00:40:43.029Z,61.00
2018-04-06T00:43:09.338Z,61.70
2018-04-06T00:45:35.685Z,61.40
2018-04-06T00:48:01.977Z,61.10
2018-04-06T00:50:28.226Z,61.10
2018-04-06T00:52:54.452Z,61.80
2018-04-06T00:55:20.701Z,62.20
2018-04-06T00:57:46.997Z,61.50
2018-04-06T01:00:13.262Z,62.00
2018-04-06T01:02:39.577Z,62.40
2018-04-06T01:05:05.790Z,62.70
2018-04-06T01:07:33.899Z,62.20
2018-04-06T01:10:00.174Z,62.20
2018-04-06T01:12:26.457Z,62.20
2018-04-06T01:14:52.732Z,61.80
2018-04-06T01:17:18.991Z,62.00
2018-04-06T01:19:45.236Z,62.30
2018-04-06T01:22:11.451Z,63.00
2018-04-06T01:24:37.691Z,63.00
2018-04-06T01:27:04.002Z,62.70
2018-04-06T01:29:30.236Z,62.30
2018-04-06T01:31:56.465Z,62.00
2018-04-06T01:34:22.704Z,62.70
2018-04-06T01:36:48.945Z,62.10
2018-04-06T01:39:15.213Z,63.10
2018-04-06T01:41:42.208Z,63.50
2018-04-06T01:44:08.597Z,63.60
2018-04-06T01:46:35.653Z,63.70
2018-04-06T01:49:01.923Z,63.70
2018-04-06T01:51:28.926Z,63.30
2018-04-06T01:53:55.239Z,63.30
2018-04-06T01:56:21.534Z,63.00
2018-04-06T01:58:47.752Z,63.70
2018-04-06T02:01:14.050Z,63.40
2018-04-06T02:03:40.298Z,63.30
2018-04-06T02:06:07.283Z,63.50
2018-04-06T02:08:33.580Z,63.50
2018-04-06T02:10:59.879Z,64.60
2018-04-06T02:13:26.149Z,63.80
2018-04-06T02:15:52.417Z,64.30
2018-04-06T02:18:18.636Z,64.30
2018-04-06T02:20:44.868Z,63.50
2018-04-06T02:23:11.143Z,64.10
2018-04-06T02:25:38.186Z,64.20
2018-04-06T02:28:04.388Z,64.20
2018-04-06T02:30:30.630Z,64.50
2018-04-06T02:32:56.856Z,64.80
2018-04-06T02:35:23.105Z,65.80
2018-04-06T02:37:49.329Z,64.80
2018-04-06T02:40:15.555Z,64.80
2018-04-06T02:42:41.816Z,65.00
2018-04-06T02:45:08.011Z,64.90
2018-04-06T02:47:34.244Z,65.30
2018-04-06T02:50:00.543Z,65.90
2018-04-06T02:52:26.804Z,65.00
2018-04-06T02:54:53.017Z,65.50
2018-04-06T02:57:19.278Z,65.80
2018-04-06T02:59:45.503Z,65.90
2018-04-06T03:02:11.796Z,65.90
2018-04-06T03:04:38.074Z,65.90
2018-04-06T03:07:05.036Z,65.90
2018-04-06T03:09:32.205Z,65.90
2018-04-06T03:11:58.529Z,65.80
2018-04-06T03:14:24.733Z,65.90
2018-04-06T03:16:50.993Z,65.90
2018-04-06T03:19:17.268Z,65.90
2018-04-06T03:21:43.476Z,65.90
2018-04-06T03:24:09.715Z,65.80
2018-04-06T03:26:35.939Z,65.80
2018-04-06T03:29:02.201Z,65.90
2018-04-06T03:31:29.213Z,66.00
2018-04-06T03:33:55.488Z,66.00
2018-04-06T03:36:21.697Z,66.40
2018-04-06T03:38:47.982Z,66.80
2018-04-06T03:41:14.172Z,66.00
2018-04-06T03:43:40.435Z,65.90
2018-04-06T03:46:06.689Z,66.00
2018-04-06T03:48:32.948Z,66.70
2018-04-06T03:50:59.222Z,66.80
2018-04-06T03:53:25.453Z,66.30
2018-04-06T03:55:51.688Z,66.00
2018-04-06T03:58:18.646Z,65.90
2018-04-06T04:00:45.627Z,65.90
2018-04-06T04:03:11.920Z,65.90
2018-04-06T04:05:38.216Z,65.90
2018-04-06T04:08:04.429Z,65.90
2018-04-06T04:10:30.645Z,65.90
2018-04-06T04:12:56.904Z,65.90
2018-04-06T04:15:23.160Z,65.90
2018-04-06T04:17:50.145Z,66.00
2018-04-06T04:20:16.381Z,66.00
2018-04-06T04:22:42.592Z,66.50
2018-04-06T04:25:09.841Z,65.90
2018-04-06T04:27:36.073Z,66.50
2018-04-06T04:30:02.301Z,66.80
2018-04-06T04:32:28.568Z,66.30
2018-04-06T04:34:54.774Z,67.10
2018-04-06T04:37:21.028Z,66.10
2018-04-06T04:39:47.228Z,65.90
2018-04-06T04:42:13.490Z,66.50
2018-04-06T04:44:39.762Z,66.60
2018-04-06T04:47:05.970Z,66.90
2018-04-06T04:49:32.294Z,66.70
2018-04-06T04:51:58.523Z,66.80
2018-04-06T04:54:25.526Z,67.50
2018-04-06T04:56:51.761Z,67.40
2018-04-06T04:59:18.053Z,67.20
2018-04-06T05:01:45.036Z,67.40
2018-04-06T05:04:11.307Z,67.40
2018-04-06T05:06:37.652Z,67.40
2018-04-06T05:09:04.916Z,67.50
2018-04-06T05:11:31.133Z,67.40
2018-04-06T05:13:57.452Z,67.70
2018-04-06T05:16:24.416Z,67.40
2018-04-06T05:18:50.798Z,67.40
2018-04-06T05:21:17.057Z,67.40
2018-04-06T05:23:43.321Z,67.50
2018-04-06T05:26:09.540Z,67.20
2018-04-06T05:28:36.520Z,67.30
2018-04-06T05:31:03.763Z,67.10
2018-04-06T05:33:33.915Z,67.10
2018-04-06T05:36:00.453Z,67.20
2018-04-06T05:38:27.764Z,66.80
2018-04-06T05:40:53.949Z,66.60
2018-04-06T05:43:20.160Z,66.70
2018-04-06T05:45:46.384Z,69.40
2018-04-06T05:48:13.360Z,64.50
2018-04-06T05:50:39.731Z,64.40
2018-04-06T05:53:06.013Z,64.20
2018-04-06T05:55:32.367Z,62.90
2018-04-06T05:57:58.589Z,62.60
2018-04-06T06:00:26.548Z,59.90
2018-04-06T06:02:52.757Z,59.90
2018-04-06T06:05:19.008Z,59.40
2018-04-06T06:07:45.208Z,58.40
2018-04-06T06:10:11.471Z,58.20
2018-04-06T06:12:37.696Z,59.40
2018-04-06T06:15:03.881Z,60.00
2018-04-06T06:17:30.165Z,60.30
2018-04-06T06:19:56.432Z,60.50
2018-04-06T06:22:22.654Z,60.90
2018-04-06T06:24:49.611Z,60.60
2018-04-06T06:27:15.828Z,60.60
2018-04-06T06:29:42.033Z,60.90
2018-04-06T06:32:08.288Z,60.90
2018-04-06T06:34:34.498Z,60.60
2018-04-06T06:37:00.725Z,59.50
2018-04-06T06:39:27.658Z,59.70
2018-04-06T06:41:54.848Z,59.70
2018-04-06T06:44:21.076Z,59.10
2018-04-06T06:46:47.507Z,59.00
2018-04-06T06:49:13.722Z,59.10
2018-04-06T06:51:40.030Z,58.20
2018-04-06T06:54:06.267Z,58.30
2018-04-06T06:56:32.555Z,58.30
2018-04-06T06:58:58.749Z,58.40
2018-04-06T07:01:25.189Z,58.50
2018-04-06T07:03:51.518Z,58.30
2018-04-06T07:06:18.528Z,57.30
2018-04-06T07:08:44.744Z,57.20
2018-04-06T07:11:10.935Z,57.10
2018-04-06T07:13:37.168Z,56.50
2018-04-06T07:16:03.415Z,56.20
2018-04-06T07:18:29.677Z,56.10
2018-04-06T07:20:55.984Z,55.40
2018-04-06T07:23:22.205Z,55.40
2018-04-06T07:25:48.496Z,55.20
2018-04-06T07:28:14.755Z,55.10
2018-04-06T07:30:41.790Z,53.40
2018-04-06T07:33:07.976Z,53.40
2018-04-06T07:35:34.249Z,53.20
2018-04-06T07:38:00.490Z,52.20
2018-04-06T07:40:27.546Z,51.80
2018-04-06T07:42:53.780Z,51.50
2018-04-06T07:45:20.004Z,50.80
2018-04-06T07:47:46.178Z,50.30
2018-04-06T07:50:12.412Z,50.40
2018-04-06T07:52:38.626Z,49.80
2018-04-06T07:55:04.886Z,50.50
2018-04-06T07:57:31.098Z,49.70
2018-04-06T07:59:57.337Z,49.30
2018-04-06T08:02:25.074Z,48.80
2018-04-06T08:04:51.295Z,48.90
2018-04-06T08:07:17.670Z,48.30
2018-04-06T08:09:43.844Z,47.70
2018-04-06T08:12:10.065Z,47.10
2018-04-06T08:14:36.341Z,47.20
2018-04-06T08:17:02.673Z,46.00
2018-04-06T08:19:28.970Z,46.00
2018-04-06T08:21:55.211Z,45.10
2018-04-06T08:24:21.526Z,44.80
2018-04-06T08:26:47.787Z,44.10
2018-04-06T08:29:13.980Z,43.40
2018-04-06T08:31:40.236Z,42.80
2018-04-06T08:34:06.441Z,42.80
2018-04-06T08:36:32.704Z,42.20
2018-04-06T08:38:58.900Z,40.60
2018-04-06T08:41:25.096Z,40.50
2018-04-06T08:43:51.407Z,39.60
2018-04-06T08:46:17.620Z,39.70
2018-04-06T08:48:44.863Z,39.60
2018-04-06T08:51:11.097Z,38.70
2018-04-06T08:53:37.366Z,39.40
2018-04-06T08:56:03.590Z,38.80
2018-04-06T08:58:29.887Z,38.20
2018-04-06T09:00:56.862Z,37.50
2018-04-06T09:03:23.136Z,37.50
2018-04-06T09:05:49.324Z,36.90
2018-04-06T09:08:16.364Z,36.50
2018-04-06T09:10:42.601Z,36.60
2018-04-06T09:13:08.876Z,36.30
2018-04-06T09:15:35.845Z,35.80
2018-04-06T09:18:02.098Z,35.80
2018-04-06T09:20:28.324Z,35.10
2018-04-06T09:22:54.552Z,33.30
2018-04-06T09:25:20.781Z,33.30
2018-04-06T09:27:46.981Z,33.50
2018-04-06T09:30:13.200Z,31.60
2018-04-06T09:32:39.379Z,33.40
2018-04-06T09:35:05.593Z,31.70
2018-04-06T09:37:31.794Z,30.80
2018-04-06T09:39:58.064Z,30.60
2018-04-06T09:42:24.540Z,29.50
2018-04-06T09:44:50.859Z,29.10
2018-04-06T09:47:17.095Z,28.70
2018-04-06T09:49:43.357Z,27.30
2018-04-06T09:52:10.216Z,27.90
2018-04-06T09:54:36.439Z,28.60
2018-04-06T09:57:02.713Z,27.60
2018-04-06T09:59:28.950Z,28.70
2018-04-06T10:01:55.165Z,27.60
2018-04-06T10:04:21.373Z,27.70
2018-04-06T10:06:48.317Z,24.70
2018-04-06T10:09:14.510Z,24.70
2018-04-06T10:11:40.717Z,24.70
2018-04-06T10:14:07.648Z,24.90
2018-04-06T10:16:33.943Z,24.90
2018-04-06T10:19:00.185Z,24.90
2018-04-06T10:21:26.386Z,25.00
2018-04-06T10:23:52.670Z,25.10
2018-04-06T10:26:18.930Z,25.20
2018-04-06T10:28:45.114Z,23.30
2018-04-06T10:31:12.032Z,22.00
2018-04-06T10:33:38.238Z,21.90
2018-04-06T10:36:04.497Z,22.30
2018-04-06T10:38:30.729Z,22.40
2018-04-06T10:40:57.020Z,21.40
2018-04-06T10:43:23.408Z,20.90
2018-04-06T10:45:49.608Z,22.60
2018-04-06T10:48:15.912Z,22.30
2018-04-06T10:50:42.162Z,21.40
2018-04-06T10:53:08.373Z,21.90
2018-04-06T10:55:34.724Z,20.20
2018-04-06T10:58:01.035Z,20.00
2018-04-06T11:00:27.252Z,20.30
2018-04-06T11:02:53.448Z,19.50
2018-04-06T11:05:19.658Z,19.30
2018-04-06T11:07:45.864Z,20.10
2018-04-06T11:10:12.183Z,18.60
2018-04-06T11:12:38.406Z,18.80
2018-04-06T11:15:04.661Z,18.80
2018-04-06T11:17:30.864Z,19.00
2018-04-06T11:19:57.860Z,18.70
2018-04-06T11:22:24.125Z,18.70
2018-04-06T11:24:50.481Z,20.50
2018-04-06T11:27:16.677Z,18.70
2018-04-06T11:29:42.888Z,20.50
2018-04-06T11:32:09.155Z,18.70
2018-04-06T11:34:35.324Z,19.50
2018-04-06T11:37:01.536Z,18.00
2018-04-06T11:39:27.948Z,18.20
2018-04-06T11:41:54.153Z,15.80
2018-04-06T11:44:20.402Z,17.20
2018-04-06T11:46:46.777Z,17.00
2018-04-06T11:49:13.754Z,17.90
2018-04-06T11:51:40.709Z,16.50
2018-04-06T11:54:08.074Z,16.70
2018-04-06T11:56:34.452Z,16.60
2018-04-06T11:59:00.648Z,18.10
2018-04-06T12:01:26.883Z,16.10
2018-04-06T12:03:53.061Z,16.50
2018-04-06T12:06:19.350Z,17.20
2018-04-06T12:08:45.866Z,15.50
2018-04-06T12:11:12.157Z,14.00
2018-04-06T12:13:38.413Z,13.90
2018-04-06T12:16:05.050Z,14.10
2018-04-06T12:18:32.096Z,14.70
2018-04-06T12:20:58.353Z,14.70
2018-04-06T12:23:24.548Z,14.50
2018-04-06T12:25:50.759Z,14.60
2018-04-06T12:28:17.124Z,13.30
2018-04-06T12:30:43.351Z,14.00
2018-04-06T12:33:09.572Z,13.40
2018-04-06T12:35:35.794Z,13.60
2018-04-06T12:38:02.053Z,13.10
2018-04-06T12:40:28.238Z,13.10
2018-04-06T12:42:54.461Z,12.80
2018-04-06T12:45:20.655Z,13.60
2018-04-06T12:47:46.861Z,12.80
2018-04-06T12:50:13.087Z,12.40
2018-04-06T12:52:39.320Z,12.50
2018-04-06T12:55:06.265Z,12.10
2018-04-06T12:57:33.296Z,12.40
2018-04-06T12:59:59.557Z,12.30
2018-04-06T13:02:25.778Z,11.80
2018-04-06T13:04:52.053Z,11.80
2018-04-06T13:07:18.282Z,12.40
2018-04-06T13:09:44.550Z,11.50
2018-04-06T13:12:10.812Z,10.80
2018-04-06T13:14:37.123Z,9.60
2018-04-06T13:17:04.091Z,11.00
2018-04-06T13:19:30.340Z,10.90
2018-04-06T13:21:56.645Z,10.20
2018-04-06T13:24:22.903Z,10.30
2018-04-06T13:26:50.878Z,11.30
2018-04-06T13:29:17.837Z,10.70
2018-04-06T13:31:44.928Z,11.40
2018-04-06T13:34:11.177Z,11.40
2018-04-06T13:36:37.431Z,12.60
2018-04-06T13:39:03.756Z,11.70
2018-04-06T13:41:29.987Z,12.30
2018-04-06T13:43:56.192Z,12.70
2018-04-06T13:46:22.445Z,12.80
2018-04-06T13:48:49.468Z,12.70
2018-04-06T13:51:15.678Z,13.30
2018-04-06T13:53:41.964Z,12.40
2018-04-06T13:56:08.184Z,13.60
2018-04-06T13:58:34.503Z,13.70
2018-04-06T14:01:00.748Z,13.60
2018-04-06T14:03:27.642Z,13.70
2018-04-06T14:05:53.959Z,13.70
2018-04-06T14:08:20.160Z,13.70
2018-04-06T14:10:46.420Z,13.70
2018-04-06T14:13:12.648Z,13.50
2018-04-06T14:15:39.581Z,13.60
2018-04-06T14:18:05.820Z,13.60
2018-04-06T14:20:32.032Z,13.50
2018-04-06T14:22:58.249Z,13.60
2018-04-06T14:25:24.543Z,13.50
2018-04-06T14:27:50.844Z,13.40
2018-04-06T14:30:17.032Z,13.50
2018-04-06T14:32:43.307Z,13.70
2018-04-06T14:35:09.573Z,13.40
2018-04-06T14:37:35.966Z,13.60
2018-04-06T14:40:02.267Z,13.00
2018-04-06T14:42:28.552Z,13.40
2018-04-06T14:44:54.848Z,13.50
2018-04-06T14:47:21.113Z,13.50
2018-04-06T14:49:47.414Z,13.30
2018-04-06T14:52:13.657Z,13.20
2018-04-06T14:54:39.963Z,14.00
2018-04-06T14:57:06.260Z,13.30
2018-04-06T14:59:32.478Z,13.30
2018-04-06T15:01:58.689Z,13.10
2018-04-06T15:04:24.977Z,14.10
2018-04-06T15:06:51.192Z,13.10
2018-04-06T15:09:17.492Z,14.20
2018-04-06T15:11:43.708Z,14.10
2018-04-06T15:14:09.978Z,13.30
2018-04-06T15:16:36.173Z,13.10
2018-04-06T15:19:02.428Z,14.10
2018-04-06T15:21:29.443Z,14.50
2018-04-06T15:23:56.408Z,13.60
2018-04-06T15:26:23.354Z,13.50
2018-04-06T15:28:49.604Z,13.50
2018-04-06T15:31:16.557Z,13.40
2018-04-06T15:33:42.750Z,13.30
2018-04-06T15:36:08.994Z,13.70
2018-04-06T15:38:35.225Z,13.70
2018-04-06T15:41:01.505Z,13.30
2018-04-06T15:43:27.749Z,13.80
2018-04-06T15:45:53.969Z,14.60
2018-04-06T15:48:20.161Z,14.00
2018-04-06T15:50:46.583Z,14.10
2018-04-06T15:53:12.912Z,13.90
2018-04-06T15:55:39.141Z,13.60
2018-04-06T15:58:06.186Z,13.60
2018-04-06T16:00:32.431Z,13.30
2018-04-06T16:02:58.649Z,13.80
2018-04-06T16:05:24.916Z,13.60
2018-04-06T16:07:51.352Z,13.70
2018-04-06T16:10:17.550Z,13.40
2018-04-06T16:12:43.853Z,14.50
2018-04-06T16:15:10.071Z,14.20
2018-04-06T16:17:36.316Z,14.40
2018-04-06T16:20:02.598Z,14.40
2018-04-06T16:22:28.865Z,15.10
2018-04-06T16:24:55.092Z,14.80
2018-04-06T16:27:21.349Z,15.20
2018-04-06T16:29:47.593Z,15.00
2018-04-06T16:32:13.872Z,15.00
2018-04-06T16:34:40.076Z,14.50
2018-04-06T16:37:06.983Z,14.60
2018-04-06T16:39:33.229Z,13.70
2018-04-06T16:41:59.509Z,14.40
2018-04-06T16:44:26.456Z,14.30
2018-04-06T16:46:52.748Z,14.30
2018-04-06T16:49:18.971Z,14.50
2018-04-06T16:51:48.274Z,15.50
2018-04-06T16:54:15.353Z,15.80
2018-04-06T16:56:41.545Z,15.80
2018-04-06T16:59:07.812Z,16.00
2018-04-06T17:01:34.085Z,16.10
2018-04-06T17:04:00.334Z,16.30
2018-04-06T17:06:28.516Z,16.40
2018-04-06T17:08:54.737Z,16.10
2018-04-06T17:11:20.954Z,16.70
2018-04-06T17:13:47.878Z,17.30
2018-04-06T17:16:14.154Z,17.20
2018-04-06T17:18:41.129Z,16.10
2018-04-06T17:21:07.364Z,16.10
2018-04-06T17:23:33.561Z,16.70
2018-04-06T17:25:59.780Z,16.60
2018-04-06T17:28:25.961Z,17.30
2018-04-06T17:30:52.201Z,17.10
2018-04-06T17:33:18.364Z,16.80
2018-04-06T17:35:44.605Z,17.10
2018-04-06T17:38:11.548Z,17.70
2018-04-06T17:40:37.752Z,17.70
2018-04-06T17:43:04.028Z,17.80
2018-04-06T17:45:30.276Z,18.30
2018-04-06T17:47:56.483Z,18.40
2018-04-06T17:50:22.744Z,18.20
2018-04-06T17:52:49.052Z,18.80
2018-04-06T17:55:15.296Z,18.60
2018-04-06T17:57:41.511Z,19.70
2018-04-06T18:00:07.749Z,19.60
2018-04-06T18:02:33.916Z,19.60
2018-04-06T18:05:00.125Z,19.50
2018-04-06T18:07:26.376Z,19.50
2018-04-06T18:09:52.552Z,19.60
2018-04-06T18:12:18.759Z,19.40
2018-04-06T18:14:45.026Z,20.40
2018-04-06T18:17:11.485Z,20.30
2018-04-06T18:19:38.451Z,21.20
2018-04-06T18:22:04.706Z,21.20
2018-04-06T18:24:30.933Z,21.20
2018-04-06T18:26:57.180Z,21.80
2018-04-06T18:29:23.363Z,21.70
2018-04-06T18:31:49.581Z,21.80
2018-04-06T18:34:15.817Z,22.70
2018-04-06T18:36:42.002Z,22.40
2018-04-06T18:39:08.435Z,22.90
2018-04-06T18:41:34.707Z,23.50
2018-04-06T18:44:00.952Z,23.80
2018-04-06T18:46:27.124Z,24.40
2018-04-06T18:48:53.316Z,24.80
2018-04-06T18:51:19.506Z,23.50
2018-04-06T18:53:45.743Z,23.80
2018-04-06T18:56:11.961Z,23.70
2018-04-06T18:58:38.167Z,24.80
2018-04-06T19:01:04.368Z,25.70
2018-04-06T19:03:30.563Z,26.00
2018-04-06T19:05:56.748Z,24.40
2018-04-06T19:08:22.980Z,25.90
2018-04-06T19:10:49.237Z,25.90
2018-04-06T19:13:15.451Z,26.90
2018-04-06T19:15:41.670Z,27.10
2018-04-06T19:18:08.840Z,27.10
2018-04-06T19:20:35.163Z,27.20
2018-04-06T19:23:01.428Z,26.90
2018-04-06T19:25:27.632Z,28.10
2018-04-06T19:27:53.842Z,27.50
2018-04-06T19:30:20.066Z,27.40
2018-04-06T19:32:46.260Z,27.50
2018-04-06T19:35:12.527Z,28.30
2018-04-06T19:37:38.741Z,28.50
2018-04-06T19:40:04.932Z,28.70
2018-04-06T19:42:31.169Z,29.30
2018-04-06T19:44:57.367Z,29.80
2018-04-06T19:47:23.672Z,29.60
2018-04-06T19:49:49.921Z,30.00
2018-04-06T19:52:16.140Z,30.00
2018-04-06T19:54:42.336Z,29.80
2018-04-06T19:57:08.552Z,29.70
2018-04-06T19:59:34.729Z,29.70
2018-04-06T20:02:00.923Z,31.10
2018-04-06T20:04:27.132Z,31.50
2018-04-06T20:06:53.378Z,31.90
2018-04-06T20:09:19.888Z,31.70
2018-04-06T20:11:46.719Z,31.30
2018-04-06T20:14:12.949Z,31.00
2018-04-06T20:16:39.123Z,31.20
2018-04-06T20:19:05.339Z,32.60
2018-04-06T20:21:32.289Z,32.50
2018-04-06T20:23:59.231Z,33.40
2018-04-06T20:26:25.447Z,34.10
2018-04-06T20:28:51.702Z,34.00
2018-04-06T20:31:17.946Z,34.00
2018-04-06T20:33:44.160Z,33.60
2018-04-06T20:36:10.429Z,33.90
2018-04-06T20:38:37.789Z,33.90
2018-04-06T20:41:04.045Z,34.60
2018-04-06T20:43:30.258Z,33.80
2018-04-06T20:45:56.690Z,33.90
2018-04-06T20:48:22.938Z,35.10
2018-04-06T20:50:49.362Z,34.50
2018-04-06T20:53:15.680Z,35.10
2018-04-06T20:55:42.688Z,35.00
2018-04-06T20:58:08.890Z,35.00
2018-04-06T21:00:35.866Z,35.80
2018-04-06T21:03:02.084Z,35.80
2018-04-06T21:05:29.040Z,36.30
2018-04-06T21:07:55.997Z,36.40
2018-04-06T21:10:22.299Z,36.30
2018-04-06T21:12:48.519Z,35.70
2018-04-06T21:15:14.749Z,36.40
2018-04-06T21:17:40.992Z,37.10
2018-04-06T21:20:07.204Z,36.70
2018-04-06T21:22:33.453Z,36.50
2018-04-06T21:25:00.441Z,37.60
2018-04-06T21:27:26.635Z,37.50
2018-04-06T21:29:52.948Z,37.60
2018-04-06T21:32:19.198Z,38.00
2018-04-06T21:34:46.518Z,38.30
2018-04-06T21:37:12.708Z,39.40
2018-04-06T21:39:39.044Z,36.80
2018-04-06T21:42:05.454Z,37.00
2018-04-06T21:44:31.749Z,36.50
2018-04-06T21:46:57.975Z,37.30
2018-04-06T21:49:24.305Z,36.80
2018-04-06T21:51:50.536Z,36.80
2018-04-06T21:54:16.762Z,37.00
2018-04-06T21:56:42.992Z,37.30
2018-04-06T21:59:09.338Z,37.50
2018-04-06T22:01:35.563Z,38.20
2018-04-06T22:04:02.500Z,37.80
2018-04-06T22:06:28.727Z,37.80
2018-04-06T22:08:54.930Z,38.20
2018-04-06T22:11:21.181Z,38.50
2018-04-06T22:13:47.440Z,38.70
2018-04-06T22:16:13.750Z,38.30
2018-04-06T22:18:40.023Z,38.70
2018-04-06T22:21:06.257Z,39.20
2018-04-06T22:23:32.521Z,39.50
2018-04-06T22:25:58.731Z,39.40
2018-04-06T22:28:24.936Z,39.40
2018-04-06T22:30:51.991Z,39.20
2018-04-06T22:33:18.165Z,39.20
2018-04-06T22:35:44.460Z,39.30
2018-04-06T22:38:10.711Z,40.30
2018-04-06T22:40:36.960Z,39.70
2018-04-06T22:43:03.239Z,39.40
2018-04-06T22:45:29.465Z,39.50
2018-04-06T22:47:55.764Z,40.40
2018-04-06T22:50:22.016Z,40.60
2018-04-06T22:52:48.310Z,40.90
2018-04-06T22:55:14.523Z,40.40
2018-04-06T22:57:40.737Z,40.40
2018-04-06T23:00:07.696Z,40.40
2018-04-06T23:02:34.809Z,40.00
2018-04-06T23:05:01.005Z,40.00
2018-04-06T23:07:27.451Z,40.00
2018-04-06T23:09:53.718Z,39.40
2018-04-06T23:12:19.941Z,39.30
2018-04-06T23:14:46.213Z,38.50
2018-04-06T23:17:12.521Z,39.60
2018-04-06T23:19:39.600Z,38.70
2018-04-06T23:22:05.786Z,38.70
2018-04-06T23:24:32.012Z,38.40
2018-04-06T23:26:58.305Z,38.40
2018-04-06T23:29:25.355Z,38.50
2018-04-06T23:31:51.625Z,38.50
2018-04-06T23:34:17.838Z,38.10
2018-04-06T23:36:44.049Z,38.10
2018-04-06T23:39:10.396Z,38.70
2018-04-06T23:41:36.567Z,38.00
2018-04-06T23:44:03.548Z,38.30
2018-04-06T23:46:29.810Z,39.00
2018-04-06T23:48:56.069Z,38.20
2018-04-06T23:51:22.436Z,38.50
2018-04-06T23:53:48.648Z,38.10
2018-04-06T23:56:14.872Z,38.50
2018-04-06T23:58:41.104Z,38.10
